sensor_id;sensor_type;location;lat;lon;timestamp;P1;durP1;ratioP1;P2;durP2;ratioP2
49031;SDS011;63443;48.366;10.876;2022-11-23T10:15:25;2.70;;;1.40;;
49031;SDS011;63443;48.366;10.876;2022-11-23T10:23:50;5.47;;;1.65;;
49031;SDS011;63443;48.366;10.876;2022-11-23T15:47:52;3.70;;;1.43;;
49031;SDS011;63443;48.366;10.876;2022-11-23T15:50:18;2.75;;;1.90;;
49031;SDS011;63443;48.366;10.876;2022-11-23T15:52:44;5.28;;;2.08;;
49031;SDS011;63443;48.366;10.876;2022-11-23T15:55:11;4.55;;;2.28;;
49031;SDS011;63443;48.366;10.876;2022-11-23T15:57:39;5.82;;;3.13;;
49031;SDS011;63443;48.366;10.876;2022-11-23T16:00:06;9.80;;;3.30;;
49031;SDS011;63443;48.366;10.876;2022-11-23T16:02:34;4.32;;;3.60;;
49031;SDS011;63443;48.366;10.876;2022-11-23T16:10:27;2.85;;;2.30;;
49031;SDS011;63443;48.366;10.876;2022-11-23T16:12:55;2.97;;;1.98;;
49031;SDS011;63443;48.366;10.876;2022-11-23T16:17:56;4.85;;;2.60;;
49031;SDS011;63443;48.366;10.876;2022-11-23T16:20:23;6.63;;;2.97;;
49031;SDS011;63443;48.366;10.876;2022-11-23T16:22:50;6.32;;;2.88;;
49031;SDS011;63443;48.366;10.876;2022-11-23T16:25:29;3.33;;;1.98;;
49031;SDS011;63443;48.366;10.876;2022-11-23T16:30:37;4.30;;;3.10;;
49031;SDS011;63443;48.366;10.876;2022-11-23T16:33:04;4.20;;;3.05;;
49031;SDS011;63443;48.366;10.876;2022-11-23T16:35:30;7.00;;;3.17;;
49031;SDS011;63443;48.366;10.876;2022-11-23T16:37:56;3.42;;;2.80;;
49031;SDS011;63443;48.366;10.876;2022-11-23T16:40:22;9.07;;;4.95;;
49031;SDS011;63443;48.366;10.876;2022-11-23T16:42:49;6.82;;;6.00;;
49031;SDS011;63443;48.366;10.876;2022-11-23T16:45:16;6.93;;;4.57;;
49031;SDS011;63443;48.366;10.876;2022-11-23T16:47:49;7.32;;;3.92;;
49031;SDS011;63443;48.366;10.876;2022-11-23T16:50:17;5.20;;;3.35;;
49031;SDS011;63443;48.366;10.876;2022-11-23T16:52:43;6.57;;;4.47;;
49031;SDS011;63443;48.366;10.876;2022-11-23T16:55:09;4.85;;;3.97;;
49031;SDS011;63443;48.366;10.876;2022-11-23T16:57:35;5.57;;;4.47;;
49031;SDS011;63443;48.366;10.876;2022-11-23T17:00:03;7.30;;;4.05;;
49031;SDS011;63443;48.366;10.876;2022-11-23T17:02:30;7.45;;;3.97;;
49031;SDS011;63443;48.366;10.876;2022-11-23T17:04:56;9.25;;;4.85;;
49031;SDS011;63443;48.366;10.876;2022-11-23T17:07:21;10.88;;;6.32;;
49031;SDS011;63443;48.366;10.876;2022-11-23T17:09:47;7.60;;;4.45;;
49031;SDS011;63443;48.366;10.876;2022-11-23T17:12:14;7.57;;;3.60;;
49031;SDS011;63443;48.366;10.876;2022-11-23T17:14:41;5.55;;;3.72;;
49031;SDS011;63443;48.366;10.876;2022-11-23T17:17:21;3.58;;;3.13;;
49031;SDS011;63443;48.366;10.876;2022-11-23T17:19:48;5.18;;;4.05;;
49031;SDS011;63443;48.366;10.876;2022-11-23T17:22:15;4.20;;;3.10;;
49031;SDS011;63443;48.366;10.876;2022-11-23T17:24:42;7.57;;;3.80;;
49031;SDS011;63443;48.366;10.876;2022-11-23T17:27:10;7.10;;;3.03;;
49031;SDS011;63443;48.366;10.876;2022-11-23T17:29:41;4.15;;;3.13;;
49031;SDS011;63443;48.366;10.876;2022-11-23T17:44:17;5.93;;;3.67;;
49031;SDS011;63443;48.366;10.876;2022-11-23T17:46:43;6.90;;;4.53;;
49031;SDS011;63443;48.366;10.876;2022-11-23T17:49:13;5.65;;;3.58;;
49031;SDS011;63443;48.366;10.876;2022-11-23T17:51:41;6.85;;;3.67;;
49031;SDS011;63443;48.366;10.876;2022-11-23T17:54:07;4.90;;;2.45;;
49031;SDS011;63443;48.366;10.876;2022-11-23T17:56:33;2.80;;;2.58;;
49031;SDS011;63443;48.366;10.876;2022-11-23T17:58:59;5.05;;;2.92;;
49031;SDS011;63443;48.366;10.876;2022-11-23T18:01:25;5.68;;;3.13;;
49031;SDS011;63443;48.366;10.876;2022-11-23T18:03:51;14.73;;;10.68;;
49031;SDS011;63443;48.366;10.876;2022-11-23T18:06:20;10.68;;;8.38;;
49031;SDS011;63443;48.366;10.876;2022-11-23T18:08:47;14.07;;;11.02;;
49031;SDS011;63443;48.366;10.876;2022-11-23T18:11:14;13.60;;;11.05;;
49031;SDS011;63443;48.366;10.876;2022-11-23T18:13:40;14.65;;;11.27;;
49031;SDS011;63443;48.366;10.876;2022-11-23T18:16:07;24.83;;;18.05;;
49031;SDS011;63443;48.366;10.876;2022-11-23T18:18:33;14.82;;;11.27;;
49031;SDS011;63443;48.366;10.876;2022-11-23T18:20:59;11.13;;;8.57;;
49031;SDS011;63443;48.366;10.876;2022-11-23T18:23:25;16.23;;;11.80;;
49031;SDS011;63443;48.366;10.876;2022-11-23T18:26:00;18.35;;;10.35;;
49031;SDS011;63443;48.366;10.876;2022-11-23T18:28:36;16.85;;;10.20;;
49031;SDS011;63443;48.366;10.876;2022-11-23T18:31:02;12.98;;;8.98;;
49031;SDS011;63443;48.366;10.876;2022-11-23T18:33:27;13.35;;;7.95;;
49031;SDS011;63443;48.366;10.876;2022-11-23T18:35:53;10.13;;;7.53;;
49031;SDS011;63443;48.366;10.876;2022-11-23T18:38:18;11.52;;;8.00;;
49031;SDS011;63443;48.366;10.876;2022-11-23T18:40:44;11.70;;;8.05;;
49031;SDS011;63443;48.366;10.876;2022-11-23T18:43:10;12.57;;;9.00;;
49031;SDS011;63443;48.366;10.876;2022-11-23T18:45:35;10.82;;;8.20;;
49031;SDS011;63443;48.366;10.876;2022-11-23T18:48:01;17.70;;;9.75;;
49031;SDS011;63443;48.366;10.876;2022-11-23T18:50:27;9.02;;;6.97;;
49031;SDS011;63443;48.366;10.876;2022-11-23T18:52:52;14.13;;;10.02;;
49031;SDS011;63443;48.366;10.876;2022-11-23T18:55:18;12.88;;;7.93;;
49031;SDS011;63443;48.366;10.876;2022-11-23T18:57:44;9.82;;;7.28;;
49031;SDS011;63443;48.366;10.876;2022-11-23T19:00:10;7.65;;;6.07;;
49031;SDS011;63443;48.366;10.876;2022-11-23T19:02:36;10.07;;;6.80;;
49031;SDS011;63443;48.366;10.876;2022-11-23T19:05:02;8.05;;;6.07;;
49031;SDS011;63443;48.366;10.876;2022-11-23T19:07:28;8.73;;;5.38;;
49031;SDS011;63443;48.366;10.876;2022-11-23T19:09:54;5.03;;;4.13;;
49031;SDS011;63443;48.366;10.876;2022-11-23T19:12:19;2.92;;;1.88;;
49031;SDS011;63443;48.366;10.876;2022-11-23T19:14:45;1.83;;;1.65;;
49031;SDS011;63443;48.366;10.876;2022-11-23T19:17:13;4.03;;;1.98;;
49031;SDS011;63443;48.366;10.876;2022-11-23T19:19:39;2.60;;;2.40;;
49031;SDS011;63443;48.366;10.876;2022-11-23T19:22:06;3.78;;;2.22;;
49031;SDS011;63443;48.366;10.876;2022-11-23T19:24:32;5.15;;;2.03;;
49031;SDS011;63443;48.366;10.876;2022-11-23T19:26:57;2.72;;;1.95;;
49031;SDS011;63443;48.366;10.876;2022-11-23T19:29:23;3.45;;;2.08;;
49031;SDS011;63443;48.366;10.876;2022-11-23T19:31:50;2.20;;;1.73;;
49031;SDS011;63443;48.366;10.876;2022-11-23T19:34:19;2.95;;;1.58;;
49031;SDS011;63443;48.366;10.876;2022-11-23T19:36:45;1.95;;;1.63;;
49031;SDS011;63443;48.366;10.876;2022-11-23T19:39:10;4.60;;;1.65;;
49031;SDS011;63443;48.366;10.876;2022-11-23T19:41:36;2.30;;;1.50;;
49031;SDS011;63443;48.366;10.876;2022-11-23T19:44:02;1.25;;;1.15;;
49031;SDS011;63443;48.366;10.876;2022-11-23T19:46:28;1.63;;;1.23;;
49031;SDS011;63443;48.366;10.876;2022-11-23T19:48:54;1.95;;;1.30;;
49031;SDS011;63443;48.366;10.876;2022-11-23T19:51:21;3.47;;;1.60;;
49031;SDS011;63443;48.366;10.876;2022-11-23T19:53:47;1.92;;;1.15;;
49031;SDS011;63443;48.366;10.876;2022-11-23T19:56:23;3.92;;;2.33;;
49031;SDS011;63443;48.366;10.876;2022-11-23T19:58:54;3.70;;;1.83;;
49031;SDS011;63443;48.366;10.876;2022-11-23T20:01:21;3.42;;;2.25;;
49031;SDS011;63443;48.366;10.876;2022-11-23T20:03:49;1.48;;;1.38;;
49031;SDS011;63443;48.366;10.876;2022-11-23T20:06:18;1.98;;;1.67;;
49031;SDS011;63443;48.366;10.876;2022-11-23T20:08:57;2.30;;;2.05;;
49031;SDS011;63443;48.366;10.876;2022-11-23T20:11:29;1.58;;;1.48;;
49031;SDS011;63443;48.366;10.876;2022-11-23T20:13:55;3.40;;;1.70;;
49031;SDS011;63443;48.366;10.876;2022-11-23T20:16:22;2.55;;;2.10;;
49031;SDS011;63443;48.366;10.876;2022-11-23T20:18:53;2.35;;;2.00;;
49031;SDS011;63443;48.366;10.876;2022-11-23T20:21:21;5.75;;;3.00;;
49031;SDS011;63443;48.366;10.876;2022-11-23T20:23:47;3.17;;;2.03;;
49031;SDS011;63443;48.366;10.876;2022-11-23T20:26:18;2.85;;;2.35;;
49031;SDS011;63443;48.366;10.876;2022-11-23T20:28:43;3.83;;;2.45;;
49031;SDS011;63443;48.366;10.876;2022-11-23T20:31:13;3.33;;;2.28;;
49031;SDS011;63443;48.366;10.876;2022-11-23T20:33:40;2.88;;;1.85;;
49031;SDS011;63443;48.366;10.876;2022-11-23T20:36:07;1.88;;;1.75;;
49031;SDS011;63443;48.366;10.876;2022-11-23T20:38:34;3.35;;;2.85;;
49031;SDS011;63443;48.366;10.876;2022-11-23T20:41:09;2.92;;;2.30;;
49031;SDS011;63443;48.366;10.876;2022-11-23T20:43:39;5.05;;;2.85;;
49031;SDS011;63443;48.366;10.876;2022-11-23T20:46:05;2.40;;;2.28;;
49031;SDS011;63443;48.366;10.876;2022-11-23T20:48:31;3.30;;;2.88;;
49031;SDS011;63443;48.366;10.876;2022-11-23T20:50:59;4.10;;;3.03;;
49031;SDS011;63443;48.366;10.876;2022-11-23T20:53:28;3.33;;;3.03;;
49031;SDS011;63443;48.366;10.876;2022-11-23T20:56:02;3.85;;;2.88;;
49031;SDS011;63443;48.366;10.876;2022-11-23T20:58:30;3.65;;;3.35;;
49031;SDS011;63443;48.366;10.876;2022-11-23T21:01:01;6.30;;;4.53;;
49031;SDS011;63443;48.366;10.876;2022-11-23T21:03:31;4.10;;;3.78;;
49031;SDS011;63443;48.366;10.876;2022-11-23T21:06:07;5.35;;;4.78;;
49031;SDS011;63443;48.366;10.876;2022-11-23T21:08:35;7.80;;;4.95;;
49031;SDS011;63443;48.366;10.876;2022-11-23T21:11:10;8.00;;;5.32;;
49031;SDS011;63443;48.366;10.876;2022-11-23T21:14:00;5.30;;;4.80;;
49031;SDS011;63443;48.366;10.876;2022-11-23T21:16:46;5.78;;;5.13;;
49031;SDS011;63443;48.366;10.876;2022-11-23T21:19:17;5.75;;;5.25;;
49031;SDS011;63443;48.366;10.876;2022-11-23T21:21:44;6.25;;;5.75;;
49031;SDS011;63443;48.366;10.876;2022-11-23T21:24:10;6.32;;;5.72;;
49031;SDS011;63443;48.366;10.876;2022-11-23T21:26:36;6.93;;;6.32;;
49031;SDS011;63443;48.366;10.876;2022-11-23T21:29:02;7.22;;;6.50;;
